createdAt,value
2023-02-12T00:00:45.616Z,93713.84
2023-02-12T00:03:13.454Z,93676.91
2023-02-12T00:05:42.941Z,93645.22
2023-02-12T00:08:12.043Z,93606.09
2023-02-12T00:10:43.083Z,93566.63
2023-02-12T00:13:11.100Z,93545.59
2023-02-12T00:15:40.243Z,93514.72
2023-02-12T00:18:08.082Z,93526.75
2023-02-12T00:20:36.286Z,93538.66
2023-02-12T00:23:05.847Z,93523.53
2023-02-12T00:25:33.999Z,93494.91
2023-02-12T00:28:02.117Z,93483.28
2023-02-12T00:30:30.165Z,93488.44
2023-02-12T00:32:58.058Z,93499.25
2023-02-12T00:35:25.996Z,93489.25
2023-02-12T00:37:53.799Z,93486.84
2023-02-12T00:40:23.101Z,93468.34
2023-02-12T00:42:50.930Z,93474.13
2023-02-12T00:45:18.766Z,93519.34
2023-02-12T00:47:46.664Z,93544.28
2023-02-12T00:50:14.829Z,93590.13
2023-02-12T00:52:43.067Z,93591.75
2023-02-12T00:55:10.842Z,93630.06
2023-02-12T00:57:40.079Z,93666.78
2023-02-12T01:00:09.258Z,93693.50
2023-02-12T01:02:37.005Z,93739.59
2023-02-12T01:05:05.124Z,93817.28
2023-02-12T01:07:32.954Z,93855.81
2023-02-12T01:10:00.693Z,93864.81
2023-02-12T01:12:28.568Z,93879.16
2023-02-12T01:14:57.740Z,93881.59
2023-02-12T01:17:25.773Z,93921.59
2023-02-12T01:19:58.552Z,94026.97
2023-02-12T01:22:27.699Z,94086.69
2023-02-12T01:24:55.542Z,94061.50
2023-02-12T01:27:23.343Z,94052.13
2023-02-12T01:29:51.864Z,94026.31
2023-02-12T01:32:21.158Z,94027.94
2023-02-12T01:34:48.938Z,94047.13
2023-02-12T01:37:16.897Z,94073.13
2023-02-12T01:39:44.628Z,94066.34
2023-02-12T01:42:13.770Z,94054.72
2023-02-12T01:44:45.692Z,94108.28
2023-02-12T01:47:18.742Z,94096.66
2023-02-12T01:49:49.363Z,94126.69
2023-02-12T01:52:21.260Z,94194.88
2023-02-12T01:54:50.159Z,94223.94
2023-02-12T01:57:19.446Z,94233.16
2023-02-12T01:59:52.945Z,94283.63
2023-02-12T02:02:20.900Z,94379.84
2023-02-12T02:04:54.150Z,94400.53
2023-02-12T02:07:21.942Z,94474.66
2023-02-12T02:09:49.985Z,94529.38
2023-02-12T02:12:35.457Z,94525.16
2023-02-12T02:15:05.338Z,94537.78
2023-02-12T02:17:46.121Z,94546.19
2023-02-12T02:20:43.864Z,94552.84
2023-02-12T02:23:45.523Z,94573.91
2023-02-12T02:26:38.650Z,94558.84
2023-02-12T02:29:24.368Z,94592.50
2023-02-12T02:32:00.162Z,94640.16
2023-02-12T02:34:34.529Z,94672.22
2023-02-12T02:37:11.378Z,94716.00
2023-02-12T02:39:44.465Z,94737.09
2023-02-12T02:42:18.365Z,94798.38
2023-02-12T02:44:53.936Z,94862.94
2023-02-12T02:47:26.774Z,94876.56
2023-02-12T02:49:58.697Z,94926.25
2023-02-12T02:52:32.793Z,94889.22
2023-02-12T02:55:07.668Z,94943.63
2023-02-12T02:57:39.631Z,94990.19
2023-02-12T03:00:15.047Z,94955.28
2023-02-12T03:02:49.222Z,94927.97
2023-02-12T03:05:20.652Z,94998.34
2023-02-12T03:07:53.406Z,94967.75
2023-02-12T03:10:26.305Z,95055.97
2023-02-12T03:12:56.983Z,95057.75
2023-02-12T03:15:29.912Z,95024.81
2023-02-12T03:18:00.930Z,94987.25
2023-02-12T03:20:32.241Z,95019.59
2023-02-12T03:23:05.990Z,95007.09
2023-02-12T03:25:37.666Z,95068.50
2023-02-12T03:28:10.814Z,95054.50
2023-02-12T03:30:46.678Z,95043.13
2023-02-12T03:33:23.829Z,95068.66
2023-02-12T03:36:00.745Z,95104.88
2023-02-12T03:38:38.456Z,95072.66
2023-02-12T03:41:10.201Z,95120.16
2023-02-12T03:43:50.415Z,95153.81
2023-02-12T03:46:24.067Z,95143.22
2023-02-12T03:49:02.472Z,95162.09
2023-02-12T03:51:35.887Z,95124.47
2023-02-12T03:54:05.104Z,95168.91
2023-02-12T03:56:38.546Z,95177.31
2023-02-12T03:59:07.098Z,95185.81
2023-02-12T04:01:36.747Z,95118.34
2023-02-12T04:04:08.764Z,95114.97
2023-02-12T04:06:37.021Z,95113.94
2023-02-12T04:09:07.429Z,95131.97
2023-02-12T04:11:43.714Z,95164.34
2023-02-12T04:14:19.071Z,95162.41
2023-02-12T04:16:53.153Z,95202.72
2023-02-12T04:19:32.989Z,95186.78
2023-02-12T04:22:14.079Z,95191.97
2023-02-12T04:24:50.884Z,95240.63
2023-02-12T04:27:26.764Z,95224.81
2023-02-12T04:29:59.810Z,95258.34
2023-02-12T04:32:34.038Z,95237.47
2023-02-12T04:35:13.657Z,95228.94
2023-02-12T04:37:45.145Z,95221.28
2023-02-12T04:40:16.116Z,95238.19
2023-02-12T04:42:45.314Z,95232.56
2023-02-12T04:45:15.036Z,95294.78
2023-02-12T04:47:43.125Z,95288.94
2023-02-12T04:50:13.520Z,95231.59
2023-02-12T04:52:41.481Z,95271.03
2023-02-12T04:55:09.683Z,95270.69
2023-02-12T04:57:37.603Z,95343.63
2023-02-12T05:00:06.844Z,95331.91
2023-02-12T05:02:35.453Z,95321.63
2023-02-12T05:05:03.830Z,95334.50
2023-02-12T05:07:33.160Z,95304.06
2023-02-12T05:10:00.919Z,95274.47
2023-02-12T05:12:28.763Z,95257.03
2023-02-12T05:14:56.618Z,95320.16
2023-02-12T05:17:24.775Z,95294.13
2023-02-12T05:19:52.830Z,95336.94
2023-02-12T05:22:20.769Z,95342.97
2023-02-12T05:24:50.175Z,95344.59
2023-02-12T05:27:18.145Z,95341.72
2023-02-12T05:29:46.093Z,95373.38
2023-02-12T05:32:14.083Z,95435.06
2023-02-12T05:34:42.398Z,95413.16
2023-02-12T05:37:10.235Z,95481.34
2023-02-12T05:39:38.171Z,95467.31
2023-02-12T05:42:07.549Z,95439.28
2023-02-12T05:44:35.400Z,95424.47
2023-02-12T05:47:03.285Z,95473.50
2023-02-12T05:49:31.260Z,95491.44
2023-02-12T05:51:59.059Z,95372.13
2023-02-12T05:54:26.898Z,95396.38
2023-02-12T05:56:54.882Z,95425.63
2023-02-12T05:59:24.855Z,95351.63
2023-02-12T06:01:53.927Z,95382.66
2023-02-12T06:04:24.043Z,95390.63
2023-02-12T06:06:52.557Z,95451.94
2023-02-12T06:09:20.797Z,95416.59
2023-02-12T06:11:48.993Z,95498.88
2023-02-12T06:14:18.803Z,95537.03
2023-02-12T06:16:49.372Z,95509.75
2023-02-12T06:19:18.379Z,95537.03
2023-02-12T06:21:46.807Z,95557.59
2023-02-12T06:24:15.660Z,95542.88
2023-02-12T06:26:43.619Z,95560.03
2023-02-12T06:29:11.537Z,95611.66
2023-02-12T06:31:39.912Z,95634.66
2023-02-12T06:34:11.529Z,95569.81
2023-02-12T06:36:41.102Z,95660.72
2023-02-12T06:39:09.707Z,95651.19
2023-02-12T06:41:37.507Z,95669.31
2023-02-12T06:44:06.669Z,95620.44
2023-02-12T06:46:34.665Z,95673.19
2023-02-12T06:49:02.598Z,95685.22
2023-02-12T06:51:32.244Z,95688.94
2023-02-12T06:54:00.179Z,95748.66
2023-02-12T06:56:28.940Z,95731.84
2023-02-12T06:59:01.111Z,95755.50
2023-02-12T07:01:31.312Z,95796.28
2023-02-12T07:04:00.899Z,95745.84
2023-02-12T07:06:29.926Z,95830.88
2023-02-12T07:08:59.530Z,95809.31
2023-02-12T07:11:28.705Z,95847.84
2023-02-12T07:13:56.635Z,95769.00
2023-02-12T07:16:25.345Z,95873.97
2023-02-12T07:18:53.370Z,95858.81
2023-02-12T07:21:21.915Z,95890.75
2023-02-12T07:23:51.670Z,95931.63
2023-02-12T07:26:22.770Z,95919.72
2023-02-12T07:28:51.428Z,95884.72
2023-02-12T07:31:21.910Z,95967.06
2023-02-12T07:33:50.559Z,95943.25
2023-02-12T07:36:21.748Z,95926.19
2023-02-12T07:38:49.988Z,95962.72
2023-02-12T07:41:21.542Z,96036.00
2023-02-12T07:43:54.301Z,96024.91
2023-02-12T07:46:26.477Z,96042.19
2023-02-12T07:48:54.440Z,96079.97
2023-02-12T07:51:22.279Z,96100.25
2023-02-12T07:53:51.967Z,96122.34
2023-02-12T07:56:23.231Z,96157.31
2023-02-12T07:58:52.834Z,96135.41
2023-02-12T08:01:23.566Z,96190.34
2023-02-12T08:03:52.984Z,96181.25
2023-02-12T08:06:23.430Z,96195.78
2023-02-12T08:08:52.778Z,96274.44
2023-02-12T08:11:22.485Z,96238.69
2023-02-12T08:13:50.377Z,96282.97
2023-02-12T08:16:20.631Z,96296.53
2023-02-12T08:18:49.185Z,96286.25
2023-02-12T08:21:18.827Z,96346.66
2023-02-12T08:23:49.987Z,96358.44
2023-02-12T08:26:20.542Z,96362.31
2023-02-12T08:28:51.765Z,96407.06
2023-02-12T08:31:23.123Z,96426.69
2023-02-12T08:33:52.929Z,96464.75
2023-02-12T08:36:23.521Z,96483.41
2023-02-12T08:38:51.942Z,96506.22
2023-02-12T08:41:21.833Z,96537.81
2023-02-12T08:43:53.245Z,96552.94
2023-02-12T08:46:25.256Z,96592.41
2023-02-12T08:48:56.939Z,96626.34
2023-02-12T08:51:26.972Z,96663.75
2023-02-12T08:53:56.892Z,96648.72
2023-02-12T08:56:25.635Z,96752.34
2023-02-12T08:58:54.950Z,96800.94
2023-02-12T09:01:25.594Z,96849.53
2023-02-12T09:03:54.241Z,96880.16
2023-02-12T09:06:24.550Z,96987.53
2023-02-12T09:08:53.004Z,96997.75
2023-02-12T09:11:24.348Z,96973.25
2023-02-12T09:13:52.218Z,97020.94
2023-02-12T09:16:21.665Z,97125.69
2023-02-12T09:18:52.217Z,97166.78
2023-02-12T09:21:20.448Z,97185.56
2023-02-12T09:23:49.016Z,97240.22
2023-02-12T09:26:20.852Z,97301.75
2023-02-12T09:28:49.938Z,97381.84
2023-02-12T09:31:20.845Z,97421.34
2023-02-12T09:33:54.056Z,97496.00
2023-02-12T09:36:23.438Z,97561.09
2023-02-12T09:38:51.613Z,97501.78
2023-02-12T09:42:03.773Z,97607.44
2023-02-12T09:44:41.948Z,97603.78
2023-02-12T09:47:16.637Z,97716.72
2023-02-12T09:50:05.674Z,97768.75
2023-02-12T09:52:37.352Z,97800.78
2023-02-12T09:55:05.817Z,97783.97
2023-02-12T09:57:36.308Z,97894.22
2023-02-12T10:00:07.931Z,97984.94
2023-02-12T10:02:37.296Z,98106.91
2023-02-12T10:05:11.315Z,98188.19
2023-02-12T10:07:59.042Z,98105.50
2023-02-12T10:10:41.168Z,98149.94
2023-02-12T10:13:19.939Z,98252.91
2023-02-12T10:15:57.246Z,98343.41
2023-02-12T10:18:48.040Z,98481.13
2023-02-12T10:21:30.437Z,98504.38
2023-02-12T10:24:15.143Z,98511.06
2023-02-12T10:26:47.775Z,98570.16
2023-02-12T10:29:19.402Z,98729.22
2023-02-12T10:31:50.321Z,98690.25
2023-02-12T10:34:21.399Z,98802.44
2023-02-12T10:36:52.973Z,98793.81
2023-02-12T10:39:25.360Z,98776.94
2023-02-12T10:41:59.429Z,98711.09
2023-02-12T10:44:27.616Z,98681.88
2023-02-12T10:46:56.193Z,98718.31
2023-02-12T10:49:24.731Z,98701.19
2023-02-12T10:52:06.395Z,98589.84
2023-02-12T10:54:43.050Z,98662.84
2023-02-12T10:57:21.857Z,98651.22
2023-02-12T10:59:53.241Z,98708.59
2023-02-12T11:02:25.188Z,98726.72
2023-02-12T11:04:54.391Z,98764.25
2023-02-12T11:07:24.404Z,98791.47
2023-02-12T11:09:57.416Z,98779.44
2023-02-12T11:12:38.347Z,98768.19
2023-02-12T11:15:15.502Z,98727.50
2023-02-12T11:17:55.496Z,98790.78
2023-02-12T11:20:29.584Z,98951.22
2023-02-12T11:23:01.767Z,98880.44
2023-02-12T11:25:32.035Z,98901.91
2023-02-12T11:28:02.714Z,98850.47
2023-02-12T11:30:30.818Z,98981.72
2023-02-12T11:33:16.494Z,99132.91
2023-02-12T11:35:53.855Z,99082.69
2023-02-12T11:38:27.446Z,98988.94
2023-02-12T11:41:00.587Z,99054.69
2023-02-12T11:43:31.208Z,99077.25
2023-02-12T11:46:01.922Z,99007.44
2023-02-12T11:48:33.446Z,99123.03
2023-02-12T11:51:05.417Z,99078.94
2023-02-12T11:53:40.549Z,99129.66
2023-02-12T11:56:11.302Z,99105.16
2023-02-12T11:58:40.066Z,99069.59
2023-02-12T12:01:19.123Z,99014.16
2023-02-12T12:03:55.259Z,99015.34
2023-02-12T12:06:29.287Z,98978.84
2023-02-12T12:09:09.250Z,98948.69
2023-02-12T12:11:45.835Z,98863.94
2023-02-12T12:14:20.524Z,98854.06
2023-02-12T12:17:13.631Z,98966.81
2023-02-12T12:19:54.938Z,98999.47
2023-02-12T12:22:44.226Z,98885.00
2023-02-12T12:25:21.610Z,98777.78
2023-02-12T12:28:08.405Z,98751.31
2023-02-12T12:30:52.719Z,98640.28
2023-02-12T12:33:27.549Z,98658.88
2023-02-12T12:36:15.349Z,98647.94
2023-02-12T12:38:53.553Z,98613.34
2023-02-12T12:41:33.362Z,98699.50
2023-02-12T12:44:11.432Z,98705.03
2023-02-12T12:47:00.214Z,98589.13
2023-02-12T12:49:50.585Z,98537.50
2023-02-12T12:52:51.726Z,98555.88
2023-02-12T12:55:45.685Z,98624.84
2023-02-12T12:58:25.132Z,98608.56
2023-02-12T13:01:08.288Z,98563.09
2023-02-12T13:04:02.048Z,98607.22
2023-02-12T13:06:41.069Z,98481.75
2023-02-12T13:09:29.985Z,98487.56
2023-02-12T13:12:21.049Z,98537.41
2023-02-12T13:14:57.411Z,98393.34
2023-02-12T13:17:34.432Z,98391.16
2023-02-12T13:20:11.588Z,98420.16
2023-02-12T13:22:49.032Z,98389.50
2023-02-12T13:25:25.062Z,98355.06
2023-02-12T13:27:54.103Z,98284.88
2023-02-12T13:30:28.258Z,98221.91
2023-02-12T13:33:06.974Z,98190.13
2023-02-12T13:35:39.077Z,98201.09
2023-02-12T13:38:10.079Z,98142.22
2023-02-12T13:40:38.640Z,98143.19
2023-02-12T13:43:16.694Z,98121.44
2023-02-12T13:45:53.205Z,98088.84
2023-02-12T13:48:35.814Z,98048.22
2023-02-12T13:51:17.595Z,98063.28
2023-02-12T13:54:04.918Z,97973.53
2023-02-12T13:56:43.211Z,97926.00
2023-02-12T13:59:48.899Z,97951.59
2023-02-12T14:02:52.652Z,97874.25
2023-02-12T14:05:32.071Z,97843.53
2023-02-12T14:08:03.620Z,97809.03
2023-02-12T14:10:34.713Z,97770.94
2023-02-12T14:13:20.534Z,97762.09
2023-02-12T14:15:51.977Z,97695.63
2023-02-12T14:18:39.063Z,97689.28
2023-02-12T14:21:44.140Z,97704.50
2023-02-12T14:24:51.658Z,97681.28
2023-02-12T14:27:33.832Z,97665.91
2023-02-12T14:30:28.403Z,97647.81
2023-02-12T14:33:13.813Z,97610.69
2023-02-12T14:35:44.164Z,97586.38
2023-02-12T14:38:56.674Z,97529.84
2023-02-12T14:41:37.734Z,97458.91
2023-02-12T14:44:42.624Z,97444.56
2023-02-12T14:47:30.147Z,97421.50
2023-02-12T14:50:03.215Z,97406.72
2023-02-12T14:52:39.156Z,97387.94
2023-02-12T14:55:19.473Z,97375.09
2023-02-12T14:57:47.655Z,97341.78
2023-02-12T15:00:24.364Z,97299.53
2023-02-12T15:02:55.895Z,97314.47
2023-02-12T15:05:28.050Z,97245.59
2023-02-12T15:08:01.183Z,97217.28
2023-02-12T15:10:33.454Z,97143.63
2023-02-12T15:13:15.998Z,97169.16
2023-02-12T15:15:49.632Z,97151.22
2023-02-12T15:18:26.551Z,97029.22
2023-02-12T15:21:01.623Z,97087.38
2023-02-12T15:23:40.714Z,97051.38
2023-02-12T15:26:15.791Z,97022.56
2023-02-12T15:28:46.925Z,96922.72
2023-02-12T15:31:18.058Z,96980.13
2023-02-12T15:33:48.978Z,96939.09
2023-02-12T15:36:20.085Z,96873.38
2023-02-12T15:38:53.407Z,96877.94
2023-02-12T15:41:29.040Z,96858.09
2023-02-12T15:43:57.233Z,96807.69
2023-02-12T15:46:25.434Z,96843.78
2023-02-12T15:48:55.508Z,96777.63
2023-02-12T15:51:30.574Z,96770.28
2023-02-12T15:54:06.827Z,96723.50
2023-02-12T15:56:36.328Z,96668.78
2023-02-12T15:59:05.061Z,96631.63
2023-02-12T16:01:36.160Z,96589.66
2023-02-12T16:04:06.731Z,96582.94
2023-02-12T16:06:36.845Z,96655.28
2023-02-12T16:09:09.283Z,96613.81
2023-02-12T16:11:38.458Z,96683.31
2023-02-12T16:14:10.039Z,96683.31
2023-02-12T16:16:45.180Z,96653.09
2023-02-12T16:19:20.630Z,96707.13
2023-02-12T16:21:52.800Z,96690.03
2023-02-12T16:24:29.043Z,96717.44
2023-02-12T16:30:26.769Z,96771.91
2023-02-12T16:32:55.241Z,96790.09
2023-02-12T16:35:29.768Z,96766.97
2023-02-12T16:38:40.314Z,96737.13
2023-02-12T16:41:33.844Z,96697.34
2023-02-12T16:44:25.857Z,96683.31
2023-02-12T16:46:56.704Z,96674.78
2023-02-12T16:49:27.212Z,96625.56
2023-02-12T16:52:15.189Z,96626.03
2023-02-12T16:54:43.083Z,96704.25
2023-02-12T16:57:12.891Z,96653.31
2023-02-12T16:59:44.482Z,96613.47
2023-02-12T17:02:14.966Z,96584.88
2023-02-12T17:04:43.770Z,96531.28
2023-02-12T17:07:19.814Z,96508.19
2023-02-12T17:09:47.732Z,96445.56
2023-02-12T17:12:17.927Z,96468.88
2023-02-12T17:14:46.066Z,96479.31
2023-02-12T17:17:14.030Z,96485.72
2023-02-12T17:19:41.934Z,96526.88
2023-02-12T17:22:19.900Z,96537.03
2023-02-12T17:24:51.359Z,96529.50
2023-02-12T17:27:21.251Z,96532.41
2023-02-12T17:29:49.278Z,96460.47
2023-02-12T17:32:17.423Z,96513.13
2023-02-12T17:34:49.079Z,96529.09
2023-02-12T17:37:18.363Z,96504.63
2023-02-12T17:39:46.428Z,96479.25
2023-02-12T17:42:14.361Z,96494.66
2023-02-12T17:44:43.704Z,96523.59
2023-02-12T17:47:11.679Z,96516.72
2023-02-12T17:49:40.352Z,96507.22
2023-02-12T17:52:08.249Z,96528.56
2023-02-12T17:54:36.620Z,96468.03
2023-02-12T17:57:04.566Z,96571.81
2023-02-12T17:59:32.561Z,96604.28
2023-02-12T18:02:02.828Z,96553.63
2023-02-12T18:04:33.990Z,96635.47
2023-02-12T18:07:02.590Z,96687.19
2023-02-12T18:09:30.853Z,96698.84
2023-02-12T18:11:58.713Z,96656.13
2023-02-12T18:14:26.664Z,96618.47
2023-02-12T18:16:54.775Z,96680.97
2023-02-12T18:19:26.695Z,96691.84
2023-02-12T18:21:54.755Z,96698.63
2023-02-12T18:24:22.690Z,96766.16
2023-02-12T18:26:51.567Z,96775.50
2023-02-12T18:29:19.513Z,96754.03
2023-02-12T18:31:47.455Z,96769.59
2023-02-12T18:34:15.467Z,96766.16
2023-02-12T18:36:44.690Z,96763.69
2023-02-12T18:39:12.591Z,96722.69
2023-02-12T18:41:41.039Z,96651.16
2023-02-12T18:44:08.940Z,96561.59
2023-02-12T18:46:36.849Z,96506.69
2023-02-12T18:49:05.576Z,96618.69
2023-02-12T18:51:37.302Z,96608.53
2023-02-12T18:54:08.854Z,96621.19
2023-02-12T18:56:40.100Z,96683.47
2023-02-12T18:59:09.279Z,96691.88
2023-02-12T19:01:37.909Z,96712.47
2023-02-12T19:04:07.840Z,96729.56
2023-02-12T19:06:40.689Z,96709.47
2023-02-12T19:09:10.730Z,96658.03
2023-02-12T19:11:40.478Z,96647.56
2023-02-12T19:14:08.385Z,96616.09
2023-02-12T19:16:36.653Z,96607.84
2023-02-12T19:19:04.618Z,96650.91
2023-02-12T19:21:34.862Z,96713.44
2023-02-12T19:24:04.699Z,96748.28
2023-02-12T19:26:35.711Z,96741.81
2023-02-12T19:29:04.237Z,96709.47
2023-02-12T19:31:34.864Z,96710.81
2023-02-12T19:34:05.369Z,96725.44
2023-02-12T19:36:35.444Z,96686.66
2023-02-12T19:39:04.584Z,96682.78
2023-02-12T19:41:41.252Z,96716.78
2023-02-12T19:44:12.394Z,96666.88
2023-02-12T19:46:41.252Z,96673.91
2023-02-12T19:49:13.705Z,96703.69
2023-02-12T19:51:41.797Z,96652.00
2023-02-12T19:54:11.189Z,96622.72
2023-02-12T19:56:40.963Z,96589.13
2023-02-12T19:59:10.439Z,96601.91
2023-02-12T20:01:39.494Z,96610.47
2023-02-12T20:04:07.482Z,96541.22
2023-02-12T20:06:37.940Z,96591.06
2023-02-12T20:09:08.547Z,96650.31
2023-02-12T20:11:38.781Z,96666.72
2023-02-12T20:14:09.642Z,96729.22
2023-02-12T20:16:39.201Z,96819.81
2023-02-12T20:19:09.259Z,96825.88
2023-02-12T20:21:37.463Z,96842.00
2023-02-12T20:24:06.220Z,96835.53
2023-02-12T20:26:34.644Z,96774.84
2023-02-12T20:29:05.193Z,96818.50
2023-02-12T20:31:38.758Z,96852.34
2023-02-12T20:34:08.617Z,96805.78
2023-02-12T20:36:38.461Z,96849.03
2023-02-12T20:39:07.923Z,96832.50
2023-02-12T20:41:39.024Z,96811.03
2023-02-12T20:44:08.638Z,96837.88
2023-02-12T20:46:39.615Z,96817.50
2023-02-12T20:49:08.116Z,96837.19
2023-02-12T20:51:36.122Z,96870.81
2023-02-12T20:54:04.647Z,96919.09
2023-02-12T20:56:35.714Z,96903.53
2023-02-12T20:59:05.686Z,96894.19
2023-02-12T21:01:36.201Z,96870.22
2023-02-12T21:04:07.571Z,96827.66
2023-02-12T21:06:35.591Z,96785.16
2023-02-12T21:09:03.928Z,96724.88
2023-02-12T21:11:31.931Z,96646.22
2023-02-12T21:14:20.913Z,96573.78
2023-02-12T21:16:48.745Z,96510.81
2023-02-12T21:19:18.885Z,96518.94
2023-02-12T21:21:47.860Z,96471.09
2023-02-12T21:24:17.110Z,96500.78
2023-02-12T21:26:45.191Z,96539.84
2023-02-12T21:29:13.102Z,96543.44
2023-02-12T21:31:42.728Z,96584.19
2023-02-12T21:34:13.893Z,96586.94
2023-02-12T21:36:46.340Z,96636.03
2023-02-12T21:39:16.007Z,96684.47
2023-02-12T21:41:44.464Z,96631.16
2023-02-12T21:44:14.721Z,96636.13
2023-02-12T21:46:43.509Z,96685.44
2023-02-12T21:49:12.983Z,96676.03
2023-02-12T21:51:44.469Z,96664.94
2023-02-12T21:54:15.378Z,96718.56
2023-02-12T21:56:45.577Z,96715.66
2023-02-12T21:59:14.749Z,96715.38
2023-02-12T22:01:44.105Z,96696.16
2023-02-12T22:04:12.803Z,96676.22
2023-02-12T22:06:44.313Z,96686.13
2023-02-12T22:09:14.280Z,96679.78
2023-02-12T22:11:43.026Z,96670.13
2023-02-12T22:14:14.079Z,96681.41
2023-02-12T22:16:42.527Z,96631.44
2023-02-12T22:19:10.832Z,96655.88
2023-02-12T22:21:41.159Z,96660.25
2023-02-12T22:24:13.269Z,96641.25
2023-02-12T22:26:41.306Z,96667.69
2023-02-12T22:29:10.989Z,96674.53
2023-02-12T22:31:40.993Z,96659.13
2023-02-12T22:34:12.746Z,96616.66
2023-02-12T22:36:41.963Z,96571.72
2023-02-12T22:39:13.022Z,96537.78
2023-02-12T22:41:42.168Z,96519.91
2023-02-12T22:44:11.828Z,96449.22
2023-02-12T22:46:39.898Z,96439.88
2023-02-12T22:49:07.835Z,96431.91
2023-02-12T22:51:39.654Z,96442.06
2023-02-12T22:54:08.466Z,96421.84
2023-02-12T22:56:37.682Z,96424.72
2023-02-12T22:59:07.846Z,96355.09
2023-02-12T23:01:37.873Z,96400.00
2023-02-12T23:04:06.372Z,96424.03
2023-02-12T23:06:34.789Z,96451.16
2023-02-12T23:09:04.822Z,96526.50
2023-02-12T23:11:35.359Z,96510.44
2023-02-12T23:14:04.841Z,96538.44
2023-02-12T23:16:33.017Z,96534.88
2023-02-12T23:19:02.415Z,96581.88
2023-02-12T23:21:31.888Z,96615.72
2023-02-12T23:24:00.405Z,96555.00
2023-02-12T23:26:28.842Z,96586.28
2023-02-12T23:28:57.849Z,96558.00
2023-02-12T23:31:27.247Z,96591.50
2023-02-12T23:33:55.219Z,96615.97
2023-02-12T23:36:23.238Z,96635.91
2023-02-12T23:38:52.389Z,96624.75
2023-02-12T23:41:20.293Z,96640.44
2023-02-12T23:43:48.122Z,96666.84
2023-02-12T23:46:16.090Z,96626.44
2023-02-12T23:48:45.600Z,96675.94
2023-02-12T23:51:13.800Z,96706.50
2023-02-12T23:53:41.808Z,96768.53
2023-02-12T23:56:12.119Z,96793.13
2023-02-12T23:58:40.108Z,96785.44
